createdAt,value
2023-02-19T00:01:53.732Z,7.21
2023-02-19T00:04:59.720Z,7.13
2023-02-19T00:08:02.351Z,7.08
2023-02-19T00:11:08.263Z,7.04
2023-02-19T00:14:14.821Z,7.02
2023-02-19T00:17:20.329Z,6.98
2023-02-19T00:20:22.905Z,6.87
2023-02-19T00:23:28.427Z,6.82
2023-02-19T00:26:31.485Z,6.78
2023-02-19T00:29:37.048Z,6.85
2023-02-19T00:32:39.705Z,6.77
2023-02-19T00:35:46.591Z,6.71
2023-02-19T00:38:49.681Z,6.66
2023-02-19T00:41:55.110Z,6.55
2023-02-19T00:44:58.219Z,6.61
2023-02-19T00:48:00.828Z,6.53
2023-02-19T00:51:05.929Z,6.44
2023-02-19T00:54:08.476Z,6.43
2023-02-19T00:57:10.948Z,6.63
2023-02-19T01:00:13.970Z,6.60
2023-02-19T01:03:16.678Z,6.52
2023-02-19T01:06:21.245Z,6.63
2023-02-19T01:09:23.804Z,6.78
2023-02-19T01:12:28.235Z,6.91
2023-02-19T01:15:33.273Z,6.99
2023-02-19T01:18:35.912Z,7.02
2023-02-19T01:21:40.538Z,6.94
2023-02-19T01:24:43.058Z,6.71
2023-02-19T01:27:45.758Z,6.62
2023-02-19T01:30:48.281Z,6.61
2023-02-19T01:33:53.522Z,6.53
2023-02-19T01:36:56.141Z,6.27
2023-02-19T01:39:58.732Z,6.06
2023-02-19T01:43:01.538Z,5.93
2023-02-19T01:46:04.273Z,5.82
2023-02-19T01:49:23.564Z,5.58
2023-02-19T01:52:31.884Z,5.70
2023-02-19T01:55:35.348Z,5.58
2023-02-19T01:58:38.343Z,5.70
2023-02-19T02:01:41.278Z,6.07
2023-02-19T02:04:43.984Z,6.17
2023-02-19T02:08:04.812Z,6.26
2023-02-19T02:11:07.521Z,6.33
2023-02-19T02:14:10.390Z,6.60
2023-02-19T02:17:24.633Z,6.84
2023-02-19T02:20:54.472Z,6.84
2023-02-19T02:24:21.344Z,7.03
2023-02-19T02:27:59.038Z,7.18
2023-02-19T02:31:25.742Z,7.27
2023-02-19T02:34:34.940Z,7.38
2023-02-19T02:37:42.693Z,7.46
2023-02-19T02:40:45.732Z,7.42
2023-02-19T02:43:50.618Z,7.51
2023-02-19T02:46:53.519Z,7.28
2023-02-19T02:50:07.038Z,7.39
2023-02-19T02:53:37.556Z,7.34
2023-02-19T02:56:50.540Z,7.31
2023-02-19T02:59:53.347Z,7.37
2023-02-19T03:02:57.997Z,7.25
2023-02-19T03:06:04.257Z,7.19
2023-02-19T03:09:16.237Z,7.12
2023-02-19T03:12:40.324Z,6.98
2023-02-19T03:16:06.428Z,6.93
2023-02-19T03:19:19.110Z,6.71
2023-02-19T03:22:29.894Z,6.63
2023-02-19T03:25:55.224Z,6.55
2023-02-19T03:29:23.653Z,6.56
2023-02-19T03:32:36.307Z,6.64
2023-02-19T03:35:49.602Z,6.79
2023-02-19T03:39:07.384Z,6.75
2023-02-19T03:42:11.217Z,6.56
2023-02-19T03:45:24.914Z,6.32
2023-02-19T03:48:37.858Z,6.10
2023-02-19T03:51:51.582Z,5.98
2023-02-19T03:55:18.599Z,5.90
2023-02-19T03:58:30.619Z,5.75
2023-02-19T04:01:36.206Z,5.86
2023-02-19T04:04:49.982Z,5.91
2023-02-19T04:08:06.359Z,6.02
2023-02-19T04:11:17.064Z,6.00
2023-02-19T04:15:00.856Z,5.99
2023-02-19T04:18:10.789Z,6.16
2023-02-19T04:21:13.622Z,6.21
2023-02-19T04:24:26.610Z,6.38
2023-02-19T04:27:29.240Z,6.31
2023-02-19T04:30:34.850Z,6.36
2023-02-19T04:33:40.961Z,6.30
2023-02-19T04:36:43.431Z,6.42
2023-02-19T04:39:49.252Z,6.53
2023-02-19T04:42:51.813Z,6.49
2023-02-19T04:46:01.915Z,6.58
2023-02-19T04:49:08.348Z,6.49
2023-02-19T04:52:13.549Z,6.63
2023-02-19T04:55:16.160Z,6.64
2023-02-19T04:58:18.932Z,6.58
2023-02-19T05:01:21.564Z,6.58
2023-02-19T05:04:26.843Z,6.56
2023-02-19T05:07:29.417Z,6.49
2023-02-19T05:10:37.309Z,6.52
2023-02-19T05:13:40.409Z,6.46
2023-02-19T05:16:43.170Z,6.32
2023-02-19T05:19:45.695Z,6.39
2023-02-19T05:22:51.028Z,6.33
2023-02-19T05:25:54.230Z,6.23
2023-02-19T05:29:00.482Z,6.32
2023-02-19T05:32:06.450Z,6.24
2023-02-19T05:35:10.426Z,6.18
2023-02-19T05:38:13.093Z,6.41
2023-02-19T05:41:18.371Z,6.67
2023-02-19T05:44:21.160Z,6.78
2023-02-19T05:47:23.686Z,6.83
2023-02-19T05:50:28.729Z,6.94
2023-02-19T05:53:33.465Z,7.02
2023-02-19T05:56:46.420Z,7.02
2023-02-19T05:59:48.992Z,7.03
2023-02-19T06:02:53.828Z,7.04
2023-02-19T06:05:59.636Z,7.04
2023-02-19T06:09:02.278Z,6.88
2023-02-19T06:12:07.390Z,7.04
2023-02-19T06:15:09.972Z,6.97
2023-02-19T06:18:15.959Z,6.97
2023-02-19T06:21:19.042Z,6.87
2023-02-19T06:24:24.305Z,6.87
2023-02-19T06:27:29.619Z,6.87
2023-02-19T06:30:34.962Z,6.92
2023-02-19T06:33:40.652Z,6.99
2023-02-19T06:36:43.375Z,7.02
2023-02-19T06:39:45.924Z,7.07
2023-02-19T06:42:51.385Z,7.02
2023-02-19T06:45:56.147Z,7.08
2023-02-19T06:48:59.704Z,7.06
2023-02-19T06:52:04.716Z,7.05
2023-02-19T06:55:10.841Z,6.98
2023-02-19T06:58:13.437Z,6.94
2023-02-19T07:01:16.160Z,7.10
2023-02-19T07:04:18.907Z,7.05
2023-02-19T07:07:21.554Z,7.15
2023-02-19T07:10:29.286Z,7.17
2023-02-19T07:13:31.908Z,7.21
2023-02-19T07:16:38.973Z,7.21
2023-02-19T07:19:41.628Z,7.32
2023-02-19T07:22:46.754Z,7.32
2023-02-19T07:25:49.278Z,7.28
2023-02-19T07:28:54.756Z,7.28
2023-02-19T07:31:57.392Z,7.36
2023-02-19T07:35:04.005Z,7.33
2023-02-19T07:38:06.595Z,7.52
2023-02-19T07:41:09.451Z,7.44
2023-02-19T07:44:16.547Z,7.47
2023-02-19T07:47:22.240Z,7.52
2023-02-19T07:50:24.766Z,7.66
2023-02-19T07:53:27.727Z,7.69
2023-02-19T07:56:36.298Z,7.79
2023-02-19T07:59:41.922Z,7.83
2023-02-19T08:03:00.362Z,7.88
2023-02-19T08:06:03.328Z,7.90
2023-02-19T08:09:08.255Z,7.66
2023-02-19T08:12:31.583Z,7.40
2023-02-19T08:15:34.142Z,7.36
2023-02-19T08:18:36.824Z,7.48
2023-02-19T08:21:39.995Z,7.31
2023-02-19T08:24:43.122Z,7.47
2023-02-19T08:27:48.216Z,7.46
2023-02-19T08:30:51.118Z,7.44
2023-02-19T08:33:56.403Z,7.51
2023-02-19T08:36:58.990Z,7.57
2023-02-19T08:40:01.589Z,7.59
2023-02-19T08:43:05.820Z,7.74
2023-02-19T08:46:11.821Z,7.80
2023-02-19T08:49:17.179Z,7.90
2023-02-19T08:52:19.638Z,7.97
2023-02-19T08:55:22.251Z,7.94
2023-02-19T08:58:27.582Z,7.99
2023-02-19T09:01:30.159Z,8.05
2023-02-19T09:04:37.821Z,8.11
2023-02-19T09:07:40.801Z,8.01
2023-02-19T09:10:43.550Z,8.16
2023-02-19T09:13:46.193Z,8.19
2023-02-19T09:16:48.716Z,8.31
2023-02-19T09:19:51.309Z,8.45
2023-02-19T09:22:58.508Z,8.61
2023-02-19T09:26:06.900Z,8.77
2023-02-19T09:29:09.583Z,8.91
2023-02-19T09:32:15.521Z,8.90
2023-02-19T09:35:18.825Z,9.07
2023-02-19T09:38:21.518Z,9.18
2023-02-19T09:41:26.729Z,9.31
2023-02-19T09:44:37.541Z,9.17
2023-02-19T09:47:40.189Z,9.02
2023-02-19T09:50:50.180Z,9.07
2023-02-19T09:53:54.145Z,9.00
2023-02-19T09:57:00.049Z,8.92
2023-02-19T10:00:27.904Z,8.95
2023-02-19T10:03:43.345Z,8.88
2023-02-19T10:06:46.836Z,8.98
2023-02-19T10:09:57.827Z,9.18
2023-02-19T10:13:42.917Z,9.34
2023-02-19T10:16:48.125Z,9.33
2023-02-19T10:19:52.128Z,9.32
2023-02-19T10:23:13.851Z,9.30
2023-02-19T10:26:16.537Z,9.37
2023-02-19T10:29:20.291Z,9.33
2023-02-19T10:32:25.368Z,9.37
2023-02-19T10:35:30.297Z,9.41
2023-02-19T10:38:39.282Z,9.43
2023-02-19T10:41:44.130Z,9.70
2023-02-19T10:44:53.941Z,9.81
2023-02-19T10:47:57.009Z,9.79
2023-02-19T10:51:06.237Z,10.02
2023-02-19T10:54:34.918Z,9.99
2023-02-19T10:57:38.138Z,10.11
2023-02-19T11:00:40.846Z,10.27
2023-02-19T11:03:43.724Z,10.35
2023-02-19T11:06:46.989Z,10.27
2023-02-19T11:09:53.844Z,10.45
2023-02-19T11:13:03.845Z,10.64
2023-02-19T11:16:06.576Z,10.70
2023-02-19T11:19:31.907Z,10.71
2023-02-19T11:22:38.591Z,10.84
2023-02-19T11:25:56.482Z,11.09
2023-02-19T11:29:01.340Z,11.13
2023-02-19T11:32:26.359Z,11.18
2023-02-19T11:35:31.803Z,11.41
2023-02-19T11:38:36.537Z,11.50
2023-02-19T11:41:57.159Z,11.66
2023-02-19T11:45:14.709Z,11.67
2023-02-19T11:48:38.810Z,11.80
2023-02-19T11:51:56.589Z,12.04
2023-02-19T11:55:26.385Z,12.13
2023-02-19T11:58:54.407Z,12.41
2023-02-19T12:02:27.278Z,12.32
2023-02-19T12:05:41.259Z,12.40
2023-02-19T12:09:09.721Z,12.39
2023-02-19T12:12:18.150Z,12.63
2023-02-19T12:19:14.067Z,12.67
2023-02-19T12:22:22.606Z,12.81
2023-02-19T12:25:42.035Z,13.04
2023-02-19T12:29:18.804Z,13.25
2023-02-19T12:32:53.484Z,13.73
2023-02-19T12:36:21.000Z,13.80
2023-02-19T12:39:41.626Z,13.69
2023-02-19T12:43:09.182Z,13.72
2023-02-19T12:46:48.063Z,14.31
2023-02-19T12:50:11.568Z,13.94
2023-02-19T12:53:26.059Z,13.79
2023-02-19T12:56:52.731Z,13.57
2023-02-19T13:00:07.469Z,13.68
2023-02-19T13:03:37.639Z,13.64
2023-02-19T13:06:51.976Z,13.43
2023-02-19T13:10:07.090Z,12.93
2023-02-19T13:13:28.200Z,12.57
2023-02-19T13:16:35.393Z,12.34
2023-02-19T13:19:41.499Z,12.33
2023-02-19T13:23:07.432Z,12.55
2023-02-19T13:26:19.093Z,12.88
2023-02-19T13:29:43.035Z,13.29
2023-02-19T13:33:09.848Z,13.17
2023-02-19T13:36:27.777Z,13.10
2023-02-19T13:39:34.237Z,12.90
2023-02-19T13:42:37.098Z,12.56
2023-02-19T13:45:47.284Z,12.53
2023-02-19T13:49:10.193Z,12.55
2023-02-19T13:52:34.136Z,12.94
2023-02-19T13:55:42.093Z,13.10
2023-02-19T13:59:01.654Z,13.16
2023-02-19T14:02:04.369Z,12.97
2023-02-19T14:05:11.423Z,13.05
2023-02-19T14:08:33.892Z,13.22
2023-02-19T14:11:42.720Z,13.34
2023-02-19T14:14:50.320Z,13.43
2023-02-19T14:17:55.802Z,13.47
2023-02-19T14:21:17.988Z,13.53
2023-02-19T14:24:20.835Z,13.55
2023-02-19T14:27:23.804Z,13.55
2023-02-19T14:30:27.637Z,13.61
2023-02-19T14:33:45.585Z,13.39
2023-02-19T14:37:01.841Z,13.42
2023-02-19T14:40:05.453Z,13.51
2023-02-19T14:43:14.207Z,13.55
2023-02-19T14:46:39.544Z,13.57
2023-02-19T14:49:57.844Z,13.59
2023-02-19T14:53:04.489Z,13.53
2023-02-19T14:56:17.009Z,14.41
2023-02-19T14:59:26.090Z,14.83
2023-02-19T15:02:31.698Z,15.26
2023-02-19T15:05:40.248Z,15.24
2023-02-19T15:08:48.944Z,15.29
2023-02-19T15:11:51.864Z,15.23
2023-02-19T15:15:01.165Z,15.38
2023-02-19T15:18:06.727Z,15.06
2023-02-19T15:21:23.664Z,14.92
2023-02-19T15:24:28.353Z,14.48
2023-02-19T15:27:34.568Z,14.09
2023-02-19T15:30:39.921Z,14.56
2023-02-19T15:33:50.549Z,14.51
2023-02-19T15:37:05.927Z,14.05
2023-02-19T15:40:14.098Z,13.99
2023-02-19T15:43:40.042Z,13.25
2023-02-19T15:46:44.124Z,13.15
2023-02-19T15:49:54.530Z,13.04
2023-02-19T15:53:15.040Z,12.97
2023-02-19T15:56:28.445Z,12.84
2023-02-19T15:59:56.615Z,12.79
2023-02-19T16:02:59.816Z,12.64
2023-02-19T16:06:14.271Z,12.42
2023-02-19T16:09:23.772Z,12.44
2023-02-19T16:12:29.808Z,12.31
2023-02-19T16:15:33.312Z,12.25
2023-02-19T16:18:44.118Z,12.30
2023-02-19T16:21:46.937Z,12.25
2023-02-19T16:25:13.094Z,12.25
2023-02-19T16:28:24.264Z,12.27
2023-02-19T16:31:27.196Z,12.19
2023-02-19T16:34:47.822Z,12.39
2023-02-19T16:37:58.561Z,12.39
2023-02-19T16:41:07.332Z,12.29
2023-02-19T16:44:22.108Z,12.36
2023-02-19T16:47:33.165Z,12.25
2023-02-19T16:50:36.277Z,12.25
2023-02-19T16:53:39.048Z,12.38
2023-02-19T16:56:41.763Z,12.30
2023-02-19T16:59:48.154Z,12.31
2023-02-19T17:02:53.041Z,12.11
2023-02-19T17:05:56.436Z,12.06
2023-02-19T17:08:59.245Z,12.11
2023-02-19T17:12:02.037Z,12.07
2023-02-19T17:15:05.033Z,11.93
2023-02-19T17:18:12.905Z,11.85
2023-02-19T17:21:25.187Z,11.84
2023-02-19T17:24:30.864Z,11.71
2023-02-19T17:27:35.964Z,11.42
2023-02-19T17:30:40.516Z,11.58
2023-02-19T17:33:43.827Z,11.38
2023-02-19T17:36:48.141Z,11.44
2023-02-19T17:39:50.935Z,11.49
2023-02-19T17:42:53.788Z,11.49
2023-02-19T17:45:56.389Z,11.40
2023-02-19T17:48:59.212Z,11.52
2023-02-19T17:52:04.785Z,11.50
2023-02-19T17:55:11.482Z,11.36
2023-02-19T17:58:14.602Z,11.17
2023-02-19T18:01:17.402Z,9.50
2023-02-19T18:04:20.033Z,8.74
2023-02-19T18:07:22.856Z,8.42
2023-02-19T18:10:25.724Z,8.24
2023-02-19T18:13:28.672Z,8.18
2023-02-19T18:16:31.473Z,8.20
2023-02-19T18:19:34.240Z,8.12
2023-02-19T18:22:39.940Z,8.13
2023-02-19T18:25:43.447Z,8.05
2023-02-19T18:28:47.064Z,8.05
2023-02-19T18:31:58.876Z,8.08
2023-02-19T18:35:02.097Z,8.04
2023-02-19T18:38:05.018Z,8.03
2023-02-19T18:41:12.939Z,8.12
2023-02-19T18:44:23.786Z,8.15
2023-02-19T18:47:27.106Z,8.18
2023-02-19T18:50:29.880Z,8.13
2023-02-19T18:53:32.670Z,7.99
2023-02-19T18:56:47.958Z,8.01
2023-02-19T18:59:50.967Z,7.99
2023-02-19T19:03:00.231Z,7.85
2023-02-19T19:06:03.054Z,7.83
2023-02-19T19:09:06.163Z,7.69
2023-02-19T19:12:08.903Z,7.63
2023-02-19T19:15:11.531Z,7.56
2023-02-19T19:18:14.132Z,7.52
2023-02-19T19:21:17.065Z,7.46
2023-02-19T19:24:20.488Z,7.61
2023-02-19T19:27:23.351Z,7.67
2023-02-19T19:30:26.398Z,7.77
2023-02-19T19:33:29.212Z,7.78
2023-02-19T19:36:36.712Z,7.96
2023-02-19T19:39:39.603Z,8.11
2023-02-19T19:42:44.869Z,8.17
2023-02-19T19:45:50.062Z,8.17
2023-02-19T19:48:59.050Z,8.12
2023-02-19T19:52:01.927Z,8.12
2023-02-19T19:55:08.254Z,8.05
2023-02-19T19:58:11.131Z,7.94
2023-02-19T20:01:15.209Z,7.84
2023-02-19T20:04:21.884Z,7.82
2023-02-19T20:07:24.657Z,7.62
2023-02-19T20:10:27.421Z,7.51
2023-02-19T20:13:34.564Z,7.33
2023-02-19T20:16:37.601Z,7.19
2023-02-19T20:19:40.428Z,7.09
2023-02-19T20:22:43.498Z,7.20
2023-02-19T20:25:48.804Z,7.22
2023-02-19T20:28:52.181Z,7.07
2023-02-19T20:31:55.630Z,7.23
2023-02-19T20:34:58.548Z,7.09
2023-02-19T20:38:01.359Z,6.98
2023-02-19T20:41:06.661Z,7.09
2023-02-19T20:44:09.905Z,7.14
2023-02-19T20:47:12.707Z,6.95
2023-02-19T20:50:17.917Z,6.87
2023-02-19T20:53:20.741Z,6.84
2023-02-19T20:56:26.757Z,6.82
2023-02-19T20:59:34.936Z,6.96
2023-02-19T21:02:37.621Z,6.84
2023-02-19T21:05:43.133Z,6.97
2023-02-19T21:08:50.927Z,7.02
2023-02-19T21:11:53.939Z,7.03
2023-02-19T21:14:56.699Z,7.03
2023-02-19T21:18:01.226Z,7.04
2023-02-19T21:21:04.054Z,6.87
2023-02-19T21:24:09.582Z,6.82
2023-02-19T21:27:15.441Z,7.04
2023-02-19T21:30:18.351Z,7.10
2023-02-19T21:33:21.232Z,7.15
2023-02-19T21:36:23.985Z,7.12
2023-02-19T21:39:27.666Z,7.22
2023-02-19T21:42:30.288Z,7.23
2023-02-19T21:45:43.259Z,7.24
2023-02-19T21:48:49.947Z,7.15
2023-02-19T21:51:52.536Z,7.06
2023-02-19T21:54:58.321Z,7.21
2023-02-19T21:58:00.902Z,7.24
2023-02-19T22:01:03.539Z,7.21
2023-02-19T22:04:07.260Z,7.24
2023-02-19T22:07:10.012Z,7.18
2023-02-19T22:10:16.775Z,7.16
2023-02-19T22:13:19.471Z,7.17
2023-02-19T22:16:22.275Z,7.12
2023-02-19T22:19:24.887Z,7.07
2023-02-19T22:22:27.443Z,6.99
2023-02-19T22:25:29.943Z,6.93
2023-02-19T22:28:32.538Z,6.90
2023-02-19T22:31:38.153Z,6.91
2023-02-19T22:34:42.003Z,6.85
2023-02-19T22:37:44.589Z,6.90
2023-02-19T22:40:47.227Z,6.85
2023-02-19T22:43:50.508Z,6.84
2023-02-19T22:46:55.301Z,6.67
2023-02-19T22:49:57.890Z,6.75
2023-02-19T22:53:00.450Z,6.71
2023-02-19T22:56:03.143Z,6.65
2023-02-19T22:59:05.774Z,6.58
2023-02-19T23:02:08.344Z,6.55
2023-02-19T23:05:10.901Z,6.47
2023-02-19T23:08:16.519Z,6.41
2023-02-19T23:11:24.737Z,6.40
2023-02-19T23:14:27.358Z,6.29
2023-02-19T23:17:30.004Z,6.13
2023-02-19T23:20:32.737Z,5.96
2023-02-19T23:23:35.362Z,5.75
2023-02-19T23:26:49.290Z,5.53
2023-02-19T23:29:51.932Z,5.46
2023-02-19T23:32:54.483Z,5.42
2023-02-19T23:35:57.073Z,5.51
2023-02-19T23:39:03.495Z,5.45
2023-02-19T23:42:06.094Z,5.36
2023-02-19T23:45:09.185Z,5.43
2023-02-19T23:48:11.818Z,5.34
2023-02-19T23:51:14.545Z,5.39
2023-02-19T23:54:17.254Z,5.31
2023-02-19T23:57:20.289Z,5.18
